createdAt,value
2023-03-16T00:00:00.390Z,100155.78
2023-03-16T00:00:14.991Z,100160.25
2023-03-16T00:00:29.874Z,100166.38
2023-03-16T00:00:43.660Z,100161.09
2023-03-16T00:00:57.946Z,100163.72
2023-03-16T00:01:11.906Z,100149.81
2023-03-16T00:01:24.781Z,100147.19
2023-03-16T00:01:37.453Z,100164.88
2023-03-16T00:01:50.438Z,100158.91
2023-03-16T00:02:05.574Z,100159.72
2023-03-16T00:02:20.662Z,100161.69
2023-03-16T00:02:34.784Z,100160.84
2023-03-16T00:02:49.026Z,100156.38
2023-03-16T00:03:02.116Z,100162.00
2023-03-16T00:03:15.386Z,100162.13
2023-03-16T00:03:28.075Z,100149.91
2023-03-16T00:03:43.673Z,100153.38
2023-03-16T00:03:57.463Z,100160.50
2023-03-16T00:04:10.996Z,100163.28
2023-03-16T00:04:23.904Z,100155.34
2023-03-16T00:04:37.020Z,100156.34
2023-03-16T00:04:50.019Z,100156.34
2023-03-16T00:05:02.546Z,100156.47
2023-03-16T00:05:15.067Z,100158.31
2023-03-16T00:05:27.883Z,100153.28
2023-03-16T00:05:40.575Z,100160.25
2023-03-16T00:05:57.468Z,100157.75
2023-03-16T00:06:09.956Z,100158.75
2023-03-16T00:06:25.191Z,100168.47
2023-03-16T00:06:39.078Z,100159.72
2023-03-16T00:06:52.144Z,100164.19
2023-03-16T00:07:07.058Z,100166.00
2023-03-16T00:07:19.816Z,100161.69
2023-03-16T00:07:36.377Z,100167.97
2023-03-16T00:07:54.465Z,100161.84
2023-03-16T00:08:10.196Z,100168.09
2023-03-16T00:08:23.076Z,100171.75
2023-03-16T00:08:35.454Z,100169.38
2023-03-16T00:08:47.740Z,100164.09
2023-03-16T00:09:01.316Z,100168.41
2023-03-16T00:09:13.838Z,100165.22
2023-03-16T00:09:37.181Z,100161.75
2023-03-16T00:09:50.626Z,100169.69
2023-03-16T00:10:03.818Z,100170.81
2023-03-16T00:10:18.340Z,100170.00
2023-03-16T00:10:33.369Z,100170.97
2023-03-16T00:10:46.605Z,100167.50
2023-03-16T00:11:00.813Z,100170.28
2023-03-16T00:11:14.137Z,100172.91
2023-03-16T00:11:29.180Z,100177.38
2023-03-16T00:11:43.898Z,100171.28
2023-03-16T00:12:01.802Z,100164.31
2023-03-16T00:12:22.544Z,100174.88
2023-03-16T00:12:35.877Z,100170.59
2023-03-16T00:12:49.329Z,100172.41
2023-03-16T00:13:01.948Z,100171.72
2023-03-16T00:13:15.336Z,100170.91
2023-03-16T00:13:30.363Z,100171.72
2023-03-16T00:13:43.233Z,100172.00
2023-03-16T00:13:56.643Z,100166.56
2023-03-16T00:14:09.124Z,100176.31
2023-03-16T00:14:22.605Z,100179.91
2023-03-16T00:14:35.116Z,100173.00
2023-03-16T00:14:52.161Z,100173.13
2023-03-16T00:15:07.382Z,100168.00
2023-03-16T00:15:20.976Z,100175.94
2023-03-16T00:15:35.313Z,100181.22
2023-03-16T00:15:50.606Z,100173.31
2023-03-16T00:16:04.673Z,100177.91
2023-03-16T00:16:19.231Z,100173.56
2023-03-16T00:16:31.804Z,100166.50
2023-03-16T00:16:46.391Z,100172.75
2023-03-16T00:17:02.081Z,100179.72
2023-03-16T00:17:16.683Z,100177.06
2023-03-16T00:17:29.354Z,100178.84
2023-03-16T00:17:42.909Z,100173.75
2023-03-16T00:17:55.774Z,100179.03
2023-03-16T00:18:09.020Z,100176.38
2023-03-16T00:18:22.564Z,100173.88
2023-03-16T00:18:37.792Z,100176.53
2023-03-16T00:18:51.518Z,100175.69
2023-03-16T00:19:05.021Z,100178.47
2023-03-16T00:19:17.930Z,100180.28
2023-03-16T00:19:35.111Z,100185.56
2023-03-16T00:19:48.673Z,100184.88
2023-03-16T00:20:01.215Z,100176.97
2023-03-16T00:20:15.822Z,100175.47
2023-03-16T00:20:28.786Z,100182.25
2023-03-16T00:20:42.263Z,100178.91
2023-03-16T00:20:59.599Z,100184.19
2023-03-16T00:21:17.483Z,100166.84
2023-03-16T00:21:34.143Z,100177.28
2023-03-16T00:21:48.424Z,100181.69
2023-03-16T00:22:01.068Z,100178.22
2023-03-16T00:22:15.714Z,100181.88
2023-03-16T00:22:30.470Z,100185.47
2023-03-16T00:22:43.194Z,100178.38
2023-03-16T00:22:55.943Z,100182.84
2023-03-16T00:23:10.997Z,100188.28
2023-03-16T00:23:25.380Z,100192.44
2023-03-16T00:23:40.444Z,100183.53
2023-03-16T00:23:53.827Z,100180.88
2023-03-16T00:24:07.810Z,100181.69
2023-03-16T00:24:20.672Z,100179.91
2023-03-16T00:24:33.364Z,100179.22
2023-03-16T00:24:47.127Z,100183.53
2023-03-16T00:24:59.906Z,100174.78
2023-03-16T00:25:13.675Z,100181.19
2023-03-16T00:25:28.016Z,100185.34
2023-03-16T00:25:41.068Z,100178.38
2023-03-16T00:25:54.976Z,100178.53
2023-03-16T00:26:09.811Z,100187.16
2023-03-16T00:26:26.482Z,100186.47
2023-03-16T00:26:40.813Z,100187.44
2023-03-16T00:26:53.239Z,100185.78
2023-03-16T00:27:06.571Z,100183.13
2023-03-16T00:27:19.695Z,100182.31
2023-03-16T00:27:32.286Z,100184.09
2023-03-16T00:27:45.966Z,100181.63
2023-03-16T00:27:58.949Z,100189.38
2023-03-16T00:28:12.191Z,100188.56
2023-03-16T00:28:26.476Z,100186.91
2023-03-16T00:28:39.360Z,100186.09
2023-03-16T00:28:52.433Z,100184.41
2023-03-16T00:29:05.753Z,100181.75
2023-03-16T00:29:19.477Z,100183.44
2023-03-16T00:29:33.127Z,100182.59
2023-03-16T00:29:51.786Z,100192.31
2023-03-16T00:30:04.744Z,100187.88
2023-03-16T00:30:17.122Z,100176.63
2023-03-16T00:30:34.092Z,100177.59
2023-03-16T00:30:47.144Z,100181.91
2023-03-16T00:31:01.627Z,100186.22
2023-03-16T00:31:17.879Z,100195.09
2023-03-16T00:31:33.389Z,100186.22
2023-03-16T00:31:46.431Z,100182.88
2023-03-16T00:32:02.570Z,100184.53
2023-03-16T00:32:16.445Z,100187.19
2023-03-16T00:32:30.689Z,100186.34
2023-03-16T00:32:43.206Z,100188.16
2023-03-16T00:32:56.357Z,100187.19
2023-03-16T00:33:08.607Z,100181.91
2023-03-16T00:33:23.659Z,100180.94
2023-03-16T00:33:38.557Z,100187.03
2023-03-16T00:33:51.641Z,100187.88
2023-03-16T00:34:06.814Z,100186.22
2023-03-16T00:34:20.921Z,100186.22
2023-03-16T00:34:33.719Z,100183.56
2023-03-16T00:34:50.023Z,100187.19
2023-03-16T00:35:02.368Z,100185.41
2023-03-16T00:35:15.340Z,100186.22
2023-03-16T00:35:29.785Z,100186.34
2023-03-16T00:35:48.408Z,100191.63
2023-03-16T00:36:04.500Z,100192.63
2023-03-16T00:36:17.800Z,100190.94
2023-03-16T00:36:31.802Z,100187.34
2023-03-16T00:36:46.648Z,100185.66
2023-03-16T00:37:02.648Z,100187.34
2023-03-16T00:37:21.869Z,100192.75
2023-03-16T00:37:36.904Z,100188.31
2023-03-16T00:37:51.702Z,100183.88
2023-03-16T00:38:04.401Z,100191.81
2023-03-16T00:38:17.782Z,100190.00
2023-03-16T00:38:33.799Z,100192.63
2023-03-16T00:38:48.528Z,100185.84
2023-03-16T00:39:03.001Z,100190.94
2023-03-16T00:39:15.983Z,100187.34
2023-03-16T00:39:28.246Z,100182.19
2023-03-16T00:39:42.623Z,100185.66
2023-03-16T00:39:58.778Z,100192.75
2023-03-16T00:40:11.821Z,100186.66
2023-03-16T00:40:23.995Z,100191.94
2023-03-16T00:40:36.963Z,100198.19
2023-03-16T00:40:50.742Z,100195.53
2023-03-16T00:41:04.869Z,100199.19
2023-03-16T00:41:17.555Z,100191.38
2023-03-16T00:41:32.612Z,100198.19
2023-03-16T00:41:53.094Z,100191.25
2023-03-16T00:42:08.513Z,100197.53
2023-03-16T00:42:24.554Z,100187.22
2023-03-16T00:42:37.275Z,100192.50
2023-03-16T00:42:49.413Z,100198.78
2023-03-16T00:43:09.326Z,100192.69
2023-03-16T00:43:23.821Z,100196.16
2023-03-16T00:43:38.641Z,100195.47
2023-03-16T00:43:52.644Z,100192.13
2023-03-16T00:44:05.057Z,100189.63
2023-03-16T00:44:17.994Z,100202.81
2023-03-16T00:44:30.917Z,100188.66
2023-03-16T00:44:44.053Z,100197.41
2023-03-16T00:44:58.200Z,100196.72
2023-03-16T00:45:13.945Z,100189.94
2023-03-16T00:45:26.465Z,100194.38
2023-03-16T00:45:38.877Z,100194.38
2023-03-16T00:45:59.917Z,100194.50
2023-03-16T00:46:16.453Z,100199.78
2023-03-16T00:46:29.602Z,100200.63
2023-03-16T00:46:44.726Z,100194.66
2023-03-16T00:46:59.291Z,100199.94
2023-03-16T00:47:13.178Z,100200.91
2023-03-16T00:47:30.918Z,100194.81
2023-03-16T00:47:43.737Z,100202.03
2023-03-16T00:48:00.542Z,100192.31
2023-03-16T00:48:13.022Z,100194.13
2023-03-16T00:48:25.541Z,100193.44
2023-03-16T00:48:40.449Z,100194.25
2023-03-16T00:48:53.173Z,100199.53
2023-03-16T00:49:05.888Z,100189.97
2023-03-16T00:49:21.221Z,100192.59
2023-03-16T00:49:33.822Z,100190.94
2023-03-16T00:49:47.053Z,100196.22
2023-03-16T00:50:01.219Z,100192.06
2023-03-16T00:50:15.874Z,100203.44
2023-03-16T00:50:31.817Z,100193.19
2023-03-16T00:50:44.227Z,100195.53
2023-03-16T00:50:58.684Z,100199.16
2023-03-16T00:51:15.176Z,100199.97
2023-03-16T00:51:27.305Z,100196.50
2023-03-16T00:51:43.667Z,100192.88
2023-03-16T00:52:02.727Z,100193.88
2023-03-16T00:52:15.520Z,100195.81
2023-03-16T00:52:31.820Z,100188.72
2023-03-16T00:52:45.816Z,100194.00
2023-03-16T00:53:00.193Z,100199.28
2023-03-16T00:53:13.742Z,100196.63
2023-03-16T00:53:25.675Z,100201.09
2023-03-16T00:53:41.798Z,100189.72
2023-03-16T00:53:55.435Z,100195.81
2023-03-16T00:54:08.578Z,100193.31
2023-03-16T00:54:21.137Z,100194.13
2023-03-16T00:54:33.897Z,100197.75
2023-03-16T00:54:47.724Z,100194.31
2023-03-16T00:55:01.512Z,100192.50
2023-03-16T00:55:14.294Z,100197.06
2023-03-16T00:55:28.646Z,100200.41
2023-03-16T00:55:41.786Z,100191.78
2023-03-16T00:55:56.284Z,100194.44
2023-03-16T00:56:10.530Z,100199.72
2023-03-16T00:56:24.868Z,100196.25
2023-03-16T00:56:39.413Z,100205.00
2023-03-16T00:56:51.716Z,100195.44
2023-03-16T00:57:11.439Z,100197.06
2023-03-16T00:57:27.647Z,100193.75
2023-03-16T00:57:42.644Z,100194.44
2023-03-16T00:57:57.535Z,100201.41
2023-03-16T00:58:10.596Z,100196.94
2023-03-16T00:58:23.670Z,100199.59
2023-03-16T00:58:39.180Z,100198.75
2023-03-16T00:58:54.675Z,100189.03
2023-03-16T00:59:07.079Z,100197.22
2023-03-16T00:59:21.287Z,100203.19
2023-03-16T00:59:35.119Z,100202.22
2023-03-16T00:59:47.678Z,100196.94
2023-03-16T01:00:00.668Z,100200.53
2023-03-16T01:00:14.668Z,100192.78
2023-03-16T01:00:31.915Z,100196.13
2023-03-16T01:00:47.071Z,100200.53
2023-03-16T01:01:00.240Z,100197.91
2023-03-16T01:01:15.579Z,100199.72
2023-03-16T01:01:31.070Z,100194.44
2023-03-16T01:01:43.846Z,100197.91
2023-03-16T01:01:57.000Z,100192.78
2023-03-16T01:02:12.183Z,100192.78
2023-03-16T01:02:25.432Z,100194.56
2023-03-16T01:02:40.715Z,100198.19
2023-03-16T01:02:54.837Z,100197.22
2023-03-16T01:03:07.553Z,100199.03
2023-03-16T01:03:20.822Z,100203.34
2023-03-16T01:03:35.347Z,100205.13
2023-03-16T01:03:49.772Z,100200.72
2023-03-16T01:04:02.524Z,100199.03
2023-03-16T01:04:15.008Z,100192.09
2023-03-16T01:04:27.152Z,100205.13
2023-03-16T01:04:40.961Z,100203.47
2023-03-16T01:04:55.471Z,100199.84
2023-03-16T01:05:09.492Z,100199.84
2023-03-16T01:05:23.866Z,100196.56
2023-03-16T01:05:40.904Z,100201.81
2023-03-16T01:05:53.958Z,100203.59
2023-03-16T01:06:07.836Z,100200.16
2023-03-16T01:06:23.824Z,100203.59
2023-03-16T01:06:40.103Z,100205.41
2023-03-16T01:06:53.971Z,100205.41
2023-03-16T01:07:07.747Z,100205.41
2023-03-16T01:07:22.802Z,100207.09
2023-03-16T01:07:36.118Z,100201.81
2023-03-16T01:07:50.407Z,100197.63
2023-03-16T01:08:02.904Z,100195.00
2023-03-16T01:08:16.746Z,100207.25
2023-03-16T01:08:30.919Z,100204.59
2023-03-16T01:08:44.417Z,100201.28
2023-03-16T01:08:58.027Z,100199.47
2023-03-16T01:09:10.052Z,100207.25
2023-03-16T01:09:22.413Z,100194.34
2023-03-16T01:09:40.912Z,100198.50
2023-03-16T01:09:58.689Z,100201.28
2023-03-16T01:10:13.966Z,100199.47
2023-03-16T01:10:27.520Z,100196.97
2023-03-16T01:10:45.717Z,100202.25
2023-03-16T01:11:02.565Z,100197.94
2023-03-16T01:11:18.693Z,100197.94
2023-03-16T01:11:33.213Z,100194.78
2023-03-16T01:11:47.657Z,100196.41
2023-03-16T01:12:01.222Z,100191.16
2023-03-16T01:12:16.481Z,100197.41
2023-03-16T01:12:31.097Z,100202.69
2023-03-16T01:12:45.329Z,100192.41
2023-03-16T01:13:01.315Z,100193.22
2023-03-16T01:13:16.890Z,100201.31
2023-03-16T01:13:30.782Z,100196.97
2023-03-16T01:13:43.692Z,100200.31
2023-03-16T01:13:56.840Z,100194.34
2023-03-16T01:14:09.784Z,100197.97
2023-03-16T01:14:22.318Z,100198.66
2023-03-16T01:14:35.534Z,100199.63
2023-03-16T01:14:49.571Z,100201.31
2023-03-16T01:15:01.958Z,100198.78
2023-03-16T01:15:14.720Z,100202.25
2023-03-16T01:15:27.333Z,100201.44
2023-03-16T01:15:42.788Z,100206.72
2023-03-16T01:15:59.012Z,100201.44
2023-03-16T01:16:11.659Z,100205.88
2023-03-16T01:16:23.674Z,100203.13
2023-03-16T01:16:35.930Z,100207.53
2023-03-16T01:16:50.982Z,100201.44
2023-03-16T01:17:11.032Z,100200.47
2023-03-16T01:17:28.460Z,100208.22
2023-03-16T01:17:42.244Z,100207.41
2023-03-16T01:17:55.703Z,100201.44
2023-03-16T01:18:08.310Z,100197.69
2023-03-16T01:18:22.979Z,100202.94
2023-03-16T01:18:39.183Z,100198.50
2023-03-16T01:18:52.832Z,100199.19
2023-03-16T01:19:05.784Z,100203.66
2023-03-16T01:19:18.721Z,100203.66
2023-03-16T01:19:31.744Z,100206.16
2023-03-16T01:19:47.448Z,100204.34
2023-03-16T01:20:00.017Z,100202.53
2023-03-16T01:20:12.931Z,100205.03
2023-03-16T01:20:32.357Z,100203.22
2023-03-16T01:20:47.665Z,100207.38
2023-03-16T01:21:03.393Z,100207.53
2023-03-16T01:21:18.808Z,100202.91
2023-03-16T01:21:34.852Z,100204.03
2023-03-16T01:21:48.707Z,100197.94
2023-03-16T01:22:09.294Z,100205.56
2023-03-16T01:22:21.972Z,100203.78
2023-03-16T01:22:37.433Z,100200.97
2023-03-16T01:22:51.118Z,100207.25
2023-03-16T01:23:04.128Z,100205.41
2023-03-16T01:23:17.924Z,100204.59
2023-03-16T01:23:31.437Z,100204.47
2023-03-16T01:23:44.016Z,100202.66
2023-03-16T01:23:58.006Z,100207.75
2023-03-16T01:24:12.515Z,100205.13
2023-03-16T01:24:26.570Z,100207.75
2023-03-16T01:24:40.574Z,100208.47
2023-03-16T01:24:56.806Z,100207.50
2023-03-16T01:25:12.112Z,100209.31
2023-03-16T01:25:28.316Z,100209.97
2023-03-16T01:25:44.016Z,100208.31
2023-03-16T01:25:56.738Z,100209.00
2023-03-16T01:26:08.790Z,100209.00
2023-03-16T01:26:24.133Z,100208.03
2023-03-16T01:26:37.430Z,100211.34
2023-03-16T01:26:52.104Z,100206.94
2023-03-16T01:27:07.346Z,100206.06
2023-03-16T01:27:23.008Z,100204.28
2023-03-16T01:27:40.105Z,100204.28
2023-03-16T01:27:53.914Z,100213.03
2023-03-16T01:28:07.779Z,100217.31
2023-03-16T01:28:22.756Z,100213.84
2023-03-16T01:28:37.464Z,100211.22
2023-03-16T01:28:49.632Z,100206.75
2023-03-16T01:29:05.908Z,100205.13
2023-03-16T01:29:47.224Z,100203.16
2023-03-16T01:30:01.517Z,100212.03
2023-03-16T01:30:18.848Z,100208.44
2023-03-16T01:30:31.868Z,100205.13
2023-03-16T01:30:50.918Z,100205.13
2023-03-16T01:31:07.688Z,100204.00
2023-03-16T01:31:52.485Z,100210.91
2023-03-16T01:32:05.132Z,100205.66
2023-03-16T01:32:20.097Z,100210.09
2023-03-16T01:32:33.390Z,100207.47
2023-03-16T01:32:47.128Z,100208.28
2023-03-16T01:33:02.191Z,100214.41
2023-03-16T01:33:15.148Z,100216.06
2023-03-16T01:33:30.063Z,100216.91
2023-03-16T01:33:48.130Z,100208.84
2023-03-16T01:34:12.124Z,100205.50
2023-03-16T01:34:24.932Z,100207.84
2023-03-16T01:34:40.033Z,100206.19
2023-03-16T01:34:57.287Z,100207.84
2023-03-16T01:35:13.518Z,100205.38
2023-03-16T01:35:25.698Z,100208.00
2023-03-16T01:35:40.466Z,100204.53
2023-03-16T01:35:54.487Z,100210.66
2023-03-16T01:36:09.424Z,100204.53
2023-03-16T01:36:37.446Z,100205.38
2023-03-16T01:36:56.111Z,100208.84
2023-03-16T01:37:15.612Z,100212.44
2023-03-16T01:37:55.682Z,100212.44
2023-03-16T01:38:12.845Z,100212.44
2023-03-16T01:38:26.739Z,100203.69
2023-03-16T01:38:38.891Z,100209.78
2023-03-16T01:38:52.370Z,100205.50
2023-03-16T01:39:05.567Z,100210.66
2023-03-16T01:39:25.458Z,100209.97
2023-03-16T01:39:38.010Z,100199.41
2023-03-16T01:39:53.107Z,100206.34
2023-03-16T01:40:10.277Z,100201.06
2023-03-16T01:40:23.876Z,100208.97
2023-03-16T01:40:36.308Z,100210.78
2023-03-16T01:40:48.402Z,100205.50
2023-03-16T01:41:01.822Z,100200.22
2023-03-16T01:41:14.846Z,100205.50
2023-03-16T01:41:28.799Z,100204.53
2023-03-16T01:41:41.866Z,100209.78
2023-03-16T01:41:54.205Z,100208.16
2023-03-16T01:42:07.191Z,100202.03
2023-03-16T01:42:19.629Z,100202.03
2023-03-16T01:42:32.437Z,100199.41
2023-03-16T01:43:01.389Z,100213.44
2023-03-16T01:43:15.738Z,100207.16
2023-03-16T01:43:30.693Z,100206.34
2023-03-16T01:43:44.957Z,100203.69
2023-03-16T01:43:59.318Z,100207.16
2023-03-16T01:44:16.008Z,100212.44
2023-03-16T01:44:28.943Z,100214.25
2023-03-16T01:44:52.024Z,100203.56
2023-03-16T01:45:10.143Z,100204.53
2023-03-16T01:46:03.700Z,100208.97
2023-03-16T01:46:22.763Z,100206.19
2023-03-16T01:46:39.450Z,100200.09
2023-03-16T01:46:53.029Z,100212.31
2023-03-16T01:47:08.153Z,100201.88
2023-03-16T01:47:20.646Z,100208.84
2023-03-16T01:47:33.838Z,100211.47
2023-03-16T01:47:46.480Z,100204.53
2023-03-16T01:48:01.748Z,100205.22
2023-03-16T01:48:19.567Z,100209.66
2023-03-16T01:48:35.852Z,100210.66
2023-03-16T01:48:57.576Z,100207.84
2023-03-16T01:49:16.725Z,100209.78
2023-03-16T01:49:33.595Z,100209.66
2023-03-16T01:49:53.170Z,100200.91
2023-03-16T01:50:08.115Z,100217.44
2023-03-16T01:50:26.058Z,100219.25
2023-03-16T01:50:43.373Z,100217.44
2023-03-16T01:50:57.613Z,100206.88
2023-03-16T01:51:14.920Z,100212.16
2023-03-16T01:51:35.294Z,100215.63
2023-03-16T01:51:51.500Z,100215.50
2023-03-16T01:52:10.456Z,100221.75
2023-03-16T01:52:28.573Z,100216.47
2023-03-16T01:52:41.023Z,100205.06
2023-03-16T01:52:54.521Z,100213.81
2023-03-16T01:53:07.204Z,100213.81
2023-03-16T01:53:23.578Z,100213.97
2023-03-16T01:53:37.908Z,100213.13
2023-03-16T01:53:53.064Z,100211.34
2023-03-16T01:54:14.380Z,100218.28
2023-03-16T01:54:32.307Z,100211.19
2023-03-16T01:54:48.912Z,100220.91
2023-03-16T01:55:04.815Z,100219.94
2023-03-16T01:55:19.711Z,100222.56
2023-03-16T01:55:37.602Z,100212.84
2023-03-16T01:55:51.763Z,100215.78
2023-03-16T01:56:07.325Z,100216.47
2023-03-16T01:56:24.669Z,100216.47
2023-03-16T01:56:40.942Z,100213.81
2023-03-16T01:56:59.868Z,100214.66
2023-03-16T01:57:17.705Z,100219.09
2023-03-16T01:57:43.398Z,100217.28
2023-03-16T01:57:57.923Z,100219.94
2023-03-16T01:58:11.043Z,100216.47
2023-03-16T01:58:27.943Z,100216.47
2023-03-16T01:58:45.137Z,100220.78
2023-03-16T01:59:01.146Z,100222.72
2023-03-16T01:59:18.328Z,100223.56
2023-03-16T01:59:34.817Z,100211.47
2023-03-16T01:59:51.976Z,100222.72
2023-03-16T02:00:16.664Z,100228.00
2023-03-16T02:00:37.797Z,100222.88
2023-03-16T02:01:04.627Z,100221.22
2023-03-16T02:01:19.989Z,100221.22
2023-03-16T02:01:35.644Z,100228.97
2023-03-16T02:01:51.072Z,100228.16
2023-03-16T02:02:06.259Z,100224.53
2023-03-16T02:02:21.093Z,100237.56
2023-03-16T02:02:36.547Z,100224.38
2023-03-16T02:02:55.043Z,100226.19
2023-03-16T02:03:19.792Z,100219.94
2023-03-16T02:03:47.226Z,100225.19
2023-03-16T02:04:24.199Z,100227.84
2023-03-16T02:04:50.466Z,100231.34
2023-03-16T02:05:10.341Z,100228.00
2023-03-16T02:05:28.419Z,100228.84
2023-03-16T02:05:46.399Z,100221.91
2023-03-16T02:06:06.689Z,100228.16
2023-03-16T02:06:21.321Z,100228.97
2023-03-16T02:06:39.572Z,100230.66
2023-03-16T02:06:55.866Z,100231.59
2023-03-16T02:07:16.123Z,100230.66
2023-03-16T02:07:32.207Z,100230.66
2023-03-16T02:07:48.133Z,100230.47
2023-03-16T02:08:02.776Z,100235.94
2023-03-16T02:08:19.583Z,100232.28
2023-03-16T02:08:36.953Z,100229.66
2023-03-16T02:08:54.939Z,100228.84
2023-03-16T02:09:15.101Z,100227.31
2023-03-16T02:09:27.978Z,100232.28
2023-03-16T02:09:45.281Z,100235.94
2023-03-16T02:10:01.412Z,100235.09
2023-03-16T02:10:19.520Z,100235.09
2023-03-16T02:10:33.809Z,100235.94
2023-03-16T02:10:46.695Z,100232.47
2023-03-16T02:11:02.388Z,100234.13
2023-03-16T02:11:26.971Z,100240.38
2023-03-16T02:11:50.646Z,100236.88
2023-03-16T02:12:09.188Z,100229.81
2023-03-16T02:12:27.065Z,100237.75
2023-03-16T02:12:43.377Z,100229.13
2023-03-16T02:12:55.737Z,100237.06
2023-03-16T02:13:08.918Z,100233.72
2023-03-16T02:13:26.805Z,100238.84
2023-03-16T02:13:40.450Z,100233.72
2023-03-16T02:13:53.187Z,100235.53
2023-03-16T02:14:10.712Z,100240.81
2023-03-16T02:14:25.384Z,100236.50
2023-03-16T02:14:39.011Z,100240.94
2023-03-16T02:14:52.423Z,100238.44
2023-03-16T02:15:05.834Z,100236.09
2023-03-16T02:15:20.156Z,100237.06
2023-03-16T02:15:38.144Z,100235.41
2023-03-16T02:15:54.807Z,100238.88
2023-03-16T02:16:10.365Z,100235.69
2023-03-16T02:16:23.889Z,100230.44
2023-03-16T02:16:40.112Z,100239.16
2023-03-16T02:16:56.400Z,100239.31
2023-03-16T02:17:09.050Z,100250.00
2023-03-16T02:17:24.045Z,100242.25
2023-03-16T02:17:42.027Z,100244.88
2023-03-16T02:17:59.666Z,100245.84
2023-03-16T02:18:14.585Z,100245.00
2023-03-16T02:18:28.690Z,100245.13
2023-03-16T02:18:41.588Z,100241.69
2023-03-16T02:18:55.132Z,100251.53
2023-03-16T02:19:13.310Z,100249.59
2023-03-16T02:19:39.776Z,100245.44
2023-03-16T02:20:06.534Z,100244.75
2023-03-16T02:20:35.049Z,100250.03
2023-03-16T02:20:56.577Z,100249.31
2023-03-16T02:21:19.405Z,100259.06
2023-03-16T02:21:39.679Z,100249.50
2023-03-16T02:22:02.823Z,100248.63
2023-03-16T02:22:24.091Z,100255.72
2023-03-16T02:22:45.259Z,100240.44
2023-03-16T02:23:01.289Z,100250.03
2023-03-16T02:23:18.785Z,100248.09
2023-03-16T02:23:35.822Z,100247.13
2023-03-16T02:23:51.582Z,100251.56
2023-03-16T02:24:05.871Z,100252.38
2023-03-16T02:24:19.680Z,100247.13
2023-03-16T02:24:32.927Z,100251.56
2023-03-16T02:24:45.744Z,100249.91
2023-03-16T02:25:06.732Z,100252.38
2023-03-16T02:25:21.141Z,100252.56
2023-03-16T02:25:43.652Z,100258.66
2023-03-16T02:26:07.126Z,100248.94
2023-03-16T02:26:37.379Z,100249.91
2023-03-16T02:26:57.551Z,100251.84
2023-03-16T02:27:24.318Z,100247.41
2023-03-16T02:27:43.624Z,100253.50
2023-03-16T02:28:07.290Z,100254.50
2023-03-16T02:28:31.414Z,100257.25
2023-03-16T02:28:51.795Z,100263.22
2023-03-16T02:29:19.249Z,100261.56
2023-03-16T02:30:09.476Z,100252.97
2023-03-16T02:30:28.790Z,100265.31
2023-03-16T02:30:46.063Z,100255.63
2023-03-16T02:30:59.047Z,100263.66
2023-03-16T02:31:15.455Z,100260.03
2023-03-16T02:31:28.584Z,100266.28
2023-03-16T02:31:40.927Z,100267.94
2023-03-16T02:31:54.742Z,100261.03
2023-03-16T02:32:07.456Z,100258.38
2023-03-16T02:32:22.490Z,100261.97
2023-03-16T02:32:39.636Z,100260.19
2023-03-16T02:32:53.006Z,100259.22
2023-03-16T02:33:07.444Z,100261.97
2023-03-16T02:33:22.662Z,100266.28
2023-03-16T02:33:36.546Z,100275.03
2023-03-16T02:33:53.534Z,100268.94
2023-03-16T02:34:07.119Z,100271.56
2023-03-16T02:34:19.650Z,100264.63
2023-03-16T02:34:32.457Z,100275.16
2023-03-16T02:34:46.326Z,100276.97
2023-03-16T02:35:00.606Z,100269.06
2023-03-16T02:35:14.115Z,100269.06
2023-03-16T02:35:27.351Z,100270.88
2023-03-16T02:35:40.196Z,100272.69
2023-03-16T02:35:52.522Z,100280.59
2023-03-16T02:36:05.868Z,100276.28
2023-03-16T02:36:22.450Z,100276.28
2023-03-16T02:36:39.051Z,100262.28
2023-03-16T02:36:53.670Z,100266.72
2023-03-16T02:37:19.634Z,100267.69
2023-03-16T02:37:32.955Z,100262.41
2023-03-16T02:37:48.443Z,100277.41
2023-03-16T02:38:01.653Z,100266.03
2023-03-16T02:38:18.420Z,100279.91
2023-03-16T02:38:35.472Z,100276.44
2023-03-16T02:38:48.147Z,100277.56
2023-03-16T02:39:03.195Z,100281.84
2023-03-16T02:39:23.677Z,100278.38
2023-03-16T02:39:36.189Z,100277.56
2023-03-16T02:39:49.700Z,100275.75
2023-03-16T02:40:17.881Z,100276.69
2023-03-16T02:40:33.922Z,100276.69
2023-03-16T02:41:00.268Z,100279.34
2023-03-16T02:41:15.928Z,100277.69
2023-03-16T02:41:29.060Z,100285.59
2023-03-16T02:41:44.856Z,100282.97
2023-03-16T02:41:58.172Z,100277.00
2023-03-16T02:42:14.925Z,100281.28
2023-03-16T02:42:30.891Z,100290.19
2023-03-16T02:42:48.896Z,100277.97
2023-03-16T02:43:04.652Z,100285.91
2023-03-16T02:43:25.046Z,100281.44
2023-03-16T02:43:56.915Z,100285.91
2023-03-16T02:44:17.985Z,100281.44
2023-03-16T02:44:33.899Z,100277.13
2023-03-16T02:44:54.829Z,100288.53
2023-03-16T02:45:13.893Z,100286.97
2023-03-16T02:45:32.553Z,100292.13
2023-03-16T02:45:50.068Z,100286.03
2023-03-16T02:46:07.650Z,100282.56
2023-03-16T02:46:28.757Z,100288.78
2023-03-16T02:46:42.834Z,100287.13
2023-03-16T02:47:00.933Z,100290.59
2023-03-16T02:47:20.617Z,100288.09
2023-03-16T02:47:43.166Z,100290.72
2023-03-16T02:47:58.480Z,100297.69
2023-03-16T02:48:15.110Z,100287.56
2023-03-16T02:48:34.854Z,100291.84
2023-03-16T02:48:52.125Z,100293.66
2023-03-16T02:49:10.905Z,100285.75
2023-03-16T02:49:28.211Z,100285.75
2023-03-16T02:49:45.351Z,100282.28
2023-03-16T02:49:58.773Z,100288.50
2023-03-16T02:50:13.137Z,100285.88
2023-03-16T02:50:27.595Z,100292.81
2023-03-16T02:50:45.426Z,100291.16
2023-03-16T02:50:59.128Z,100289.34
2023-03-16T02:51:16.537Z,100292.97
2023-03-16T02:51:36.505Z,100293.78
2023-03-16T02:51:52.541Z,100285.88
2023-03-16T02:52:08.290Z,100292.97
2023-03-16T02:52:23.871Z,100294.75
2023-03-16T02:52:39.962Z,100291.31
2023-03-16T02:52:52.601Z,100294.91
2023-03-16T02:53:06.649Z,100291.44
2023-03-16T02:53:19.972Z,100290.72
2023-03-16T02:53:35.450Z,100294.19
2023-03-16T02:53:48.665Z,100291.56
2023-03-16T02:54:01.640Z,100296.84
2023-03-16T02:54:17.782Z,100295.19
2023-03-16T02:54:30.179Z,100293.50
2023-03-16T02:54:42.345Z,100293.50
2023-03-16T02:54:58.228Z,100295.19
2023-03-16T02:55:10.533Z,100295.31
2023-03-16T02:55:24.649Z,100285.75
2023-03-16T02:55:37.897Z,100297.94
2023-03-16T02:55:51.028Z,100290.16
2023-03-16T02:56:04.544Z,100291.84
2023-03-16T02:56:23.343Z,100299.88
2023-03-16T02:56:36.281Z,100299.06
2023-03-16T02:56:49.350Z,100299.06
2023-03-16T02:57:03.386Z,100302.69
2023-03-16T02:57:19.831Z,100301.69
2023-03-16T02:57:34.057Z,100299.19
2023-03-16T02:57:54.242Z,100299.19
2023-03-16T02:58:07.006Z,100301.00